sensor_id;sensor_type;location;lat;lon;timestamp;P1;durP1;ratioP1;P2;durP2;ratioP2
82900;SDS011;72673;50.822;3.280;2023-09-18T00:00:47;3.65;;;2.20;;
82900;SDS011;72673;50.822;3.280;2023-09-18T00:03:17;6.80;;;2.42;;
82900;SDS011;72673;50.822;3.280;2023-09-18T00:05:46;4.68;;;2.35;;
82900;SDS011;72673;50.822;3.280;2023-09-18T00:08:16;8.35;;;2.22;;
82900;SDS011;72673;50.822;3.280;2023-09-18T00:10:42;5.10;;;2.35;;
82900;SDS011;72673;50.822;3.280;2023-09-18T00:13:12;5.28;;;2.25;;
82900;SDS011;72673;50.822;3.280;2023-09-18T00:15:38;5.70;;;2.17;;
82900;SDS011;72673;50.822;3.280;2023-09-18T00:18:06;3.92;;;2.30;;
82900;SDS011;72673;50.822;3.280;2023-09-18T00:20:32;8.27;;;2.38;;
82900;SDS011;72673;50.822;3.280;2023-09-18T00:22:58;7.07;;;1.90;;
82900;SDS011;72673;50.822;3.280;2023-09-18T00:25:23;3.53;;;1.98;;
82900;SDS011;72673;50.822;3.280;2023-09-18T00:27:49;7.95;;;2.35;;
82900;SDS011;72673;50.822;3.280;2023-09-18T00:30:16;4.25;;;1.88;;
82900;SDS011;72673;50.822;3.280;2023-09-18T00:32:42;5.80;;;2.15;;
82900;SDS011;72673;50.822;3.280;2023-09-18T00:35:08;5.32;;;2.10;;
82900;SDS011;72673;50.822;3.280;2023-09-18T00:37:34;6.63;;;2.10;;
82900;SDS011;72673;50.822;3.280;2023-09-18T00:40:01;5.32;;;1.90;;
82900;SDS011;72673;50.822;3.280;2023-09-18T00:42:27;4.85;;;2.45;;
82900;SDS011;72673;50.822;3.280;2023-09-18T00:44:53;6.25;;;2.20;;
82900;SDS011;72673;50.822;3.280;2023-09-18T00:47:18;4.68;;;2.10;;
82900;SDS011;72673;50.822;3.280;2023-09-18T00:49:46;8.30;;;2.60;;
82900;SDS011;72673;50.822;3.280;2023-09-18T00:54:40;5.53;;;2.20;;
82900;SDS011;72673;50.822;3.280;2023-09-18T00:57:07;3.55;;;2.22;;
82900;SDS011;72673;50.822;3.280;2023-09-18T00:59:34;6.03;;;2.38;;
82900;SDS011;72673;50.822;3.280;2023-09-18T01:01:59;12.77;;;2.83;;
82900;SDS011;72673;50.822;3.280;2023-09-18T01:04:26;6.40;;;2.47;;
82900;SDS011;72673;50.822;3.280;2023-09-18T01:06:53;9.55;;;2.63;;
82900;SDS011;72673;50.822;3.280;2023-09-18T01:09:21;7.38;;;2.60;;
82900;SDS011;72673;50.822;3.280;2023-09-18T01:16:53;6.88;;;2.70;;
82900;SDS011;72673;50.822;3.280;2023-09-18T01:22:18;4.95;;;2.60;;
82900;SDS011;72673;50.822;3.280;2023-09-18T01:24:45;7.80;;;2.78;;
82900;SDS011;72673;50.822;3.280;2023-09-18T01:27:15;4.03;;;2.63;;
82900;SDS011;72673;50.822;3.280;2023-09-18T01:29:43;4.88;;;2.72;;
82900;SDS011;72673;50.822;3.280;2023-09-18T01:32:09;5.03;;;2.45;;
82900;SDS011;72673;50.822;3.280;2023-09-18T01:34:36;4.13;;;2.35;;
82900;SDS011;72673;50.822;3.280;2023-09-18T01:37:07;6.13;;;2.58;;
82900;SDS011;72673;50.822;3.280;2023-09-18T01:39:36;4.00;;;2.40;;
82900;SDS011;72673;50.822;3.280;2023-09-18T01:42:03;4.85;;;2.47;;
82900;SDS011;72673;50.822;3.280;2023-09-18T01:44:34;10.27;;;2.55;;
82900;SDS011;72673;50.822;3.280;2023-09-18T01:47:06;2.92;;;2.00;;
82900;SDS011;72673;50.822;3.280;2023-09-18T01:49:34;5.15;;;2.22;;
82900;SDS011;72673;50.822;3.280;2023-09-18T01:52:02;4.35;;;1.98;;
82900;SDS011;72673;50.822;3.280;2023-09-18T01:54:28;4.65;;;2.30;;
82900;SDS011;72673;50.822;3.280;2023-09-18T01:56:54;4.03;;;2.50;;
82900;SDS011;72673;50.822;3.280;2023-09-18T01:59:20;7.28;;;2.00;;
82900;SDS011;72673;50.822;3.280;2023-09-18T02:01:47;7.07;;;1.85;;
82900;SDS011;72673;50.822;3.280;2023-09-18T02:04:13;7.75;;;1.92;;
82900;SDS011;72673;50.822;3.280;2023-09-18T02:06:39;13.38;;;2.10;;
82900;SDS011;72673;50.822;3.280;2023-09-18T02:09:05;3.05;;;2.00;;
82900;SDS011;72673;50.822;3.280;2023-09-18T02:11:35;4.35;;;2.00;;
82900;SDS011;72673;50.822;3.280;2023-09-18T02:14:02;3.55;;;2.10;;
82900;SDS011;72673;50.822;3.280;2023-09-18T02:16:29;5.75;;;2.08;;
82900;SDS011;72673;50.822;3.280;2023-09-18T02:18:55;6.40;;;1.77;;
82900;SDS011;72673;50.822;3.280;2023-09-18T02:21:21;3.42;;;1.63;;
82900;SDS011;72673;50.822;3.280;2023-09-18T02:23:50;5.28;;;1.67;;
82900;SDS011;72673;50.822;3.280;2023-09-18T02:26:17;3.75;;;1.60;;
82900;SDS011;72673;50.822;3.280;2023-09-18T02:28:44;2.53;;;1.52;;
82900;SDS011;72673;50.822;3.280;2023-09-18T02:31:09;3.80;;;1.60;;
82900;SDS011;72673;50.822;3.280;2023-09-18T02:33:36;4.28;;;1.35;;
82900;SDS011;72673;50.822;3.280;2023-09-18T02:36:02;2.50;;;1.23;;
82900;SDS011;72673;50.822;3.280;2023-09-18T02:38:28;3.00;;;1.30;;
82900;SDS011;72673;50.822;3.280;2023-09-18T02:40:55;2.05;;;1.27;;
82900;SDS011;72673;50.822;3.280;2023-09-18T02:43:22;2.65;;;1.40;;
82900;SDS011;72673;50.822;3.280;2023-09-18T02:45:48;4.20;;;1.27;;
82900;SDS011;72673;50.822;3.280;2023-09-18T02:48:15;5.15;;;1.65;;
82900;SDS011;72673;50.822;3.280;2023-09-18T02:50:41;4.03;;;1.33;;
82900;SDS011;72673;50.822;3.280;2023-09-18T02:53:07;4.07;;;1.33;;
82900;SDS011;72673;50.822;3.280;2023-09-18T02:55:36;6.63;;;1.50;;
82900;SDS011;72673;50.822;3.280;2023-09-18T02:58:02;3.63;;;1.70;;
82900;SDS011;72673;50.822;3.280;2023-09-18T03:00:28;2.63;;;1.42;;
82900;SDS011;72673;50.822;3.280;2023-09-18T03:02:54;4.60;;;1.45;;
82900;SDS011;72673;50.822;3.280;2023-09-18T03:05:19;2.33;;;1.55;;
82900;SDS011;72673;50.822;3.280;2023-09-18T03:07:45;3.10;;;1.40;;
82900;SDS011;72673;50.822;3.280;2023-09-18T03:10:10;3.42;;;1.90;;
82900;SDS011;72673;50.822;3.280;2023-09-18T03:12:40;8.05;;;1.63;;
82900;SDS011;72673;50.822;3.280;2023-09-18T03:15:06;3.58;;;1.40;;
82900;SDS011;72673;50.822;3.280;2023-09-18T03:17:32;6.03;;;1.88;;
82900;SDS011;72673;50.822;3.280;2023-09-18T03:19:58;6.22;;;2.22;;
82900;SDS011;72673;50.822;3.280;2023-09-18T03:22:24;3.65;;;1.83;;
82900;SDS011;72673;50.822;3.280;2023-09-18T03:24:49;3.05;;;1.20;;
82900;SDS011;72673;50.822;3.280;2023-09-18T03:27:15;3.53;;;1.55;;
82900;SDS011;72673;50.822;3.280;2023-09-18T03:29:41;5.60;;;1.88;;
82900;SDS011;72673;50.822;3.280;2023-09-18T03:32:06;4.18;;;1.40;;
82900;SDS011;72673;50.822;3.280;2023-09-18T03:34:32;5.03;;;1.52;;
82900;SDS011;72673;50.822;3.280;2023-09-18T03:36:58;6.57;;;1.70;;
82900;SDS011;72673;50.822;3.280;2023-09-18T03:39:24;4.57;;;1.60;;
82900;SDS011;72673;50.822;3.280;2023-09-18T03:41:49;3.80;;;1.88;;
82900;SDS011;72673;50.822;3.280;2023-09-18T03:44:15;4.60;;;1.52;;
82900;SDS011;72673;50.822;3.280;2023-09-18T03:46:41;3.35;;;1.70;;
82900;SDS011;72673;50.822;3.280;2023-09-18T03:49:07;4.10;;;1.67;;
82900;SDS011;72673;50.822;3.280;2023-09-18T03:51:32;3.28;;;1.23;;
82900;SDS011;72673;50.822;3.280;2023-09-18T03:53:58;4.22;;;1.65;;
82900;SDS011;72673;50.822;3.280;2023-09-18T03:56:24;3.45;;;1.45;;
82900;SDS011;72673;50.822;3.280;2023-09-18T03:58:49;5.43;;;1.38;;
82900;SDS011;72673;50.822;3.280;2023-09-18T04:01:16;7.13;;;1.50;;
82900;SDS011;72673;50.822;3.280;2023-09-18T04:03:42;7.22;;;1.45;;
82900;SDS011;72673;50.822;3.280;2023-09-18T04:06:07;4.68;;;1.92;;
82900;SDS011;72673;50.822;3.280;2023-09-18T04:08:33;2.88;;;1.42;;
82900;SDS011;72673;50.822;3.280;2023-09-18T04:10:59;3.22;;;1.35;;
82900;SDS011;72673;50.822;3.280;2023-09-18T04:13:24;4.45;;;1.40;;
82900;SDS011;72673;50.822;3.280;2023-09-18T04:15:50;4.07;;;1.20;;
82900;SDS011;72673;50.822;3.280;2023-09-18T04:18:21;3.63;;;1.40;;
82900;SDS011;72673;50.822;3.280;2023-09-18T04:20:47;2.47;;;1.30;;
82900;SDS011;72673;50.822;3.280;2023-09-18T04:23:23;5.85;;;1.33;;
82900;SDS011;72673;50.822;3.280;2023-09-18T04:25:50;5.18;;;1.20;;
82900;SDS011;72673;50.822;3.280;2023-09-18T04:28:17;1.92;;;1.30;;
82900;SDS011;72673;50.822;3.280;2023-09-18T04:30:44;3.67;;;1.20;;
82900;SDS011;72673;50.822;3.280;2023-09-18T04:33:10;4.32;;;1.23;;
82900;SDS011;72673;50.822;3.280;2023-09-18T04:35:37;4.32;;;1.30;;
82900;SDS011;72673;50.822;3.280;2023-09-18T04:38:05;5.70;;;1.33;;
82900;SDS011;72673;50.822;3.280;2023-09-18T04:40:32;4.32;;;1.02;;
82900;SDS011;72673;50.822;3.280;2023-09-18T04:42:58;6.97;;;1.25;;
82900;SDS011;72673;50.822;3.280;2023-09-18T04:45:24;1.80;;;1.00;;
82900;SDS011;72673;50.822;3.280;2023-09-18T04:47:50;3.15;;;1.20;;
82900;SDS011;72673;50.822;3.280;2023-09-18T04:50:16;3.70;;;1.20;;
82900;SDS011;72673;50.822;3.280;2023-09-18T04:52:42;2.08;;;1.10;;
82900;SDS011;72673;50.822;3.280;2023-09-18T04:55:09;5.03;;;1.30;;
82900;SDS011;72673;50.822;3.280;2023-09-18T04:57:36;6.15;;;1.50;;
82900;SDS011;72673;50.822;3.280;2023-09-18T05:00:02;4.80;;;1.35;;
82900;SDS011;72673;50.822;3.280;2023-09-18T05:02:33;4.22;;;1.50;;
82900;SDS011;72673;50.822;3.280;2023-09-18T05:04:59;3.75;;;1.60;;
82900;SDS011;72673;50.822;3.280;2023-09-18T05:07:25;4.68;;;1.20;;
82900;SDS011;72673;50.822;3.280;2023-09-18T05:09:52;4.13;;;1.40;;
82900;SDS011;72673;50.822;3.280;2023-09-18T05:12:17;5.30;;;1.35;;
82900;SDS011;72673;50.822;3.280;2023-09-18T05:14:43;4.15;;;1.60;;
82900;SDS011;72673;50.822;3.280;2023-09-18T05:17:14;3.03;;;1.38;;
82900;SDS011;72673;50.822;3.280;2023-09-18T05:19:40;3.05;;;1.42;;
82900;SDS011;72673;50.822;3.280;2023-09-18T05:22:07;6.50;;;1.52;;
82900;SDS011;72673;50.822;3.280;2023-09-18T05:24:35;3.72;;;1.88;;
82900;SDS011;72673;50.822;3.280;2023-09-18T05:27:02;6.80;;;1.95;;
82900;SDS011;72673;50.822;3.280;2023-09-18T05:29:28;5.95;;;1.73;;
82900;SDS011;72673;50.822;3.280;2023-09-18T05:31:54;4.15;;;1.83;;
82900;SDS011;72673;50.822;3.280;2023-09-18T05:34:19;6.68;;;1.60;;
82900;SDS011;72673;50.822;3.280;2023-09-18T05:36:45;7.60;;;1.95;;
82900;SDS011;72673;50.822;3.280;2023-09-18T05:39:11;4.10;;;1.80;;
82900;SDS011;72673;50.822;3.280;2023-09-18T05:41:40;13.05;;;2.45;;
82900;SDS011;72673;50.822;3.280;2023-09-18T05:44:06;3.57;;;1.90;;
82900;SDS011;72673;50.822;3.280;2023-09-18T05:46:35;7.22;;;2.00;;
82900;SDS011;72673;50.822;3.280;2023-09-18T05:49:01;6.00;;;2.58;;
82900;SDS011;72673;50.822;3.280;2023-09-18T05:51:27;7.25;;;2.10;;
82900;SDS011;72673;50.822;3.280;2023-09-18T05:53:53;11.23;;;2.60;;
82900;SDS011;72673;50.822;3.280;2023-09-18T05:56:19;4.95;;;2.55;;
82900;SDS011;72673;50.822;3.280;2023-09-18T05:58:45;8.70;;;2.50;;
82900;SDS011;72673;50.822;3.280;2023-09-18T06:01:10;9.15;;;2.30;;
82900;SDS011;72673;50.822;3.280;2023-09-18T06:03:36;8.13;;;2.60;;
82900;SDS011;72673;50.822;3.280;2023-09-18T06:06:02;5.57;;;2.47;;
82900;SDS011;72673;50.822;3.280;2023-09-18T06:08:28;5.80;;;2.53;;
82900;SDS011;72673;50.822;3.280;2023-09-18T06:10:55;6.60;;;2.45;;
82900;SDS011;72673;50.822;3.280;2023-09-18T06:13:23;6.20;;;2.60;;
82900;SDS011;72673;50.822;3.280;2023-09-18T06:15:50;5.53;;;2.13;;
82900;SDS011;72673;50.822;3.280;2023-09-18T06:18:18;4.50;;;2.53;;
82900;SDS011;72673;50.822;3.280;2023-09-18T06:20:45;5.47;;;2.45;;
82900;SDS011;72673;50.822;3.280;2023-09-18T06:23:11;7.53;;;2.95;;
82900;SDS011;72673;50.822;3.280;2023-09-18T06:25:38;8.20;;;2.80;;
82900;SDS011;72673;50.822;3.280;2023-09-18T06:28:04;5.40;;;2.75;;
82900;SDS011;72673;50.822;3.280;2023-09-18T06:30:30;9.32;;;2.53;;
82900;SDS011;72673;50.822;3.280;2023-09-18T06:32:58;8.75;;;2.65;;
82900;SDS011;72673;50.822;3.280;2023-09-18T06:35:24;9.27;;;2.60;;
82900;SDS011;72673;50.822;3.280;2023-09-18T06:37:49;7.60;;;2.90;;
82900;SDS011;72673;50.822;3.280;2023-09-18T06:40:15;14.48;;;3.15;;
82900;SDS011;72673;50.822;3.280;2023-09-18T06:42:41;9.63;;;3.53;;
82900;SDS011;72673;50.822;3.280;2023-09-18T06:45:07;6.90;;;2.88;;
82900;SDS011;72673;50.822;3.280;2023-09-18T06:47:33;6.40;;;4.00;;
82900;SDS011;72673;50.822;3.280;2023-09-18T06:49:59;5.50;;;3.05;;
82900;SDS011;72673;50.822;3.280;2023-09-18T06:52:30;7.63;;;3.28;;
82900;SDS011;72673;50.822;3.280;2023-09-18T06:54:55;8.35;;;3.13;;
82900;SDS011;72673;50.822;3.280;2023-09-18T06:57:23;7.45;;;3.15;;
82900;SDS011;72673;50.822;3.280;2023-09-18T06:59:49;5.18;;;2.85;;
82900;SDS011;72673;50.822;3.280;2023-09-18T07:02:14;9.73;;;3.13;;
82900;SDS011;72673;50.822;3.280;2023-09-18T07:04:41;10.45;;;3.08;;
82900;SDS011;72673;50.822;3.280;2023-09-18T07:07:11;8.57;;;2.92;;
82900;SDS011;72673;50.822;3.280;2023-09-18T07:09:38;7.60;;;2.45;;
82900;SDS011;72673;50.822;3.280;2023-09-18T07:12:05;6.00;;;2.78;;
82900;SDS011;72673;50.822;3.280;2023-09-18T07:14:31;10.13;;;2.65;;
82900;SDS011;72673;50.822;3.280;2023-09-18T07:16:57;7.88;;;3.00;;
82900;SDS011;72673;50.822;3.280;2023-09-18T07:19:22;11.63;;;2.60;;
82900;SDS011;72673;50.822;3.280;2023-09-18T07:21:48;5.90;;;2.78;;
82900;SDS011;72673;50.822;3.280;2023-09-18T07:24:14;7.40;;;3.10;;
82900;SDS011;72673;50.822;3.280;2023-09-18T07:26:45;10.75;;;3.17;;
82900;SDS011;72673;50.822;3.280;2023-09-18T07:29:11;5.45;;;2.67;;
82900;SDS011;72673;50.822;3.280;2023-09-18T07:31:38;8.70;;;2.90;;
82900;SDS011;72673;50.822;3.280;2023-09-18T07:34:05;10.68;;;2.90;;
82900;SDS011;72673;50.822;3.280;2023-09-18T07:36:31;3.97;;;2.70;;
82900;SDS011;72673;50.822;3.280;2023-09-18T07:38:57;10.95;;;2.85;;
82900;SDS011;72673;50.822;3.280;2023-09-18T07:41:22;9.30;;;3.30;;
82900;SDS011;72673;50.822;3.280;2023-09-18T07:43:48;5.43;;;2.83;;
82900;SDS011;72673;50.822;3.280;2023-09-18T07:46:14;7.20;;;2.90;;
82900;SDS011;72673;50.822;3.280;2023-09-18T07:48:39;9.18;;;3.50;;
82900;SDS011;72673;50.822;3.280;2023-09-18T07:51:05;7.80;;;3.17;;
82900;SDS011;72673;50.822;3.280;2023-09-18T07:53:31;7.25;;;2.92;;
82900;SDS011;72673;50.822;3.280;2023-09-18T07:55:57;9.15;;;3.42;;
82900;SDS011;72673;50.822;3.280;2023-09-18T07:58:24;5.35;;;2.47;;
82900;SDS011;72673;50.822;3.280;2023-09-18T08:00:53;6.93;;;2.60;;
82900;SDS011;72673;50.822;3.280;2023-09-18T08:03:20;8.05;;;3.05;;
82900;SDS011;72673;50.822;3.280;2023-09-18T08:05:49;7.40;;;2.70;;
82900;SDS011;72673;50.822;3.280;2023-09-18T08:08:18;6.40;;;2.63;;
82900;SDS011;72673;50.822;3.280;2023-09-18T08:10:51;6.88;;;2.60;;
82900;SDS011;72673;50.822;3.280;2023-09-18T08:15:45;6.03;;;3.10;;
82900;SDS011;72673;50.822;3.280;2023-09-18T08:18:11;5.63;;;2.60;;
82900;SDS011;72673;50.822;3.280;2023-09-18T08:20:40;9.15;;;2.90;;
82900;SDS011;72673;50.822;3.280;2023-09-18T08:23:07;9.82;;;3.30;;
82900;SDS011;72673;50.822;3.280;2023-09-18T08:25:34;6.90;;;2.55;;
82900;SDS011;72673;50.822;3.280;2023-09-18T08:27:59;6.07;;;2.33;;
82900;SDS011;72673;50.822;3.280;2023-09-18T08:30:25;6.72;;;2.65;;
82900;SDS011;72673;50.822;3.280;2023-09-18T08:32:51;9.07;;;2.22;;
82900;SDS011;72673;50.822;3.280;2023-09-18T08:35:16;5.57;;;2.42;;
82900;SDS011;72673;50.822;3.280;2023-09-18T08:37:42;8.65;;;2.47;;
82900;SDS011;72673;50.822;3.280;2023-09-18T08:40:12;6.40;;;2.50;;
82900;SDS011;72673;50.822;3.280;2023-09-18T08:42:40;10.43;;;2.42;;
82900;SDS011;72673;50.822;3.280;2023-09-18T08:45:10;5.80;;;2.75;;
82900;SDS011;72673;50.822;3.280;2023-09-18T08:47:59;5.50;;;3.00;;
82900;SDS011;72673;50.822;3.280;2023-09-18T08:50:25;5.68;;;2.90;;
82900;SDS011;72673;50.822;3.280;2023-09-18T08:52:51;8.85;;;3.22;;
82900;SDS011;72673;50.822;3.280;2023-09-18T08:55:18;11.63;;;3.38;;
82900;SDS011;72673;50.822;3.280;2023-09-18T08:57:44;8.88;;;3.10;;
82900;SDS011;72673;50.822;3.280;2023-09-18T09:00:12;8.13;;;3.33;;
82900;SDS011;72673;50.822;3.280;2023-09-18T09:02:42;12.27;;;3.45;;
82900;SDS011;72673;50.822;3.280;2023-09-18T09:05:09;9.70;;;3.22;;
82900;SDS011;72673;50.822;3.280;2023-09-18T09:07:34;10.13;;;3.30;;
82900;SDS011;72673;50.822;3.280;2023-09-18T09:10:00;8.98;;;3.22;;
82900;SDS011;72673;50.822;3.280;2023-09-18T09:15:24;6.15;;;3.33;;
82900;SDS011;72673;50.822;3.280;2023-09-18T09:17:52;11.97;;;3.43;;
82900;SDS011;72673;50.822;3.280;2023-09-18T09:20:31;7.15;;;2.88;;
82900;SDS011;72673;50.822;3.280;2023-09-18T09:23:01;3.45;;;2.60;;
82900;SDS011;72673;50.822;3.280;2023-09-18T09:25:28;10.63;;;2.67;;
82900;SDS011;72673;50.822;3.280;2023-09-18T09:27:57;8.93;;;2.90;;
82900;SDS011;72673;50.822;3.280;2023-09-18T09:30:24;9.38;;;2.88;;
82900;SDS011;72673;50.822;3.280;2023-09-18T09:32:52;10.25;;;3.20;;
82900;SDS011;72673;50.822;3.280;2023-09-18T09:35:26;10.95;;;2.80;;
82900;SDS011;72673;50.822;3.280;2023-09-18T09:37:58;9.85;;;2.42;;
82900;SDS011;72673;50.822;3.280;2023-09-18T09:40:26;5.40;;;2.67;;
82900;SDS011;72673;50.822;3.280;2023-09-18T09:42:53;10.43;;;2.95;;
82900;SDS011;72673;50.822;3.280;2023-09-18T09:45:25;14.13;;;3.42;;
82900;SDS011;72673;50.822;3.280;2023-09-18T09:47:56;11.82;;;2.67;;
82900;SDS011;72673;50.822;3.280;2023-09-18T09:50:22;6.85;;;2.47;;
82900;SDS011;72673;50.822;3.280;2023-09-18T09:52:51;5.55;;;2.08;;
82900;SDS011;72673;50.822;3.280;2023-09-18T09:55:18;7.28;;;2.50;;
82900;SDS011;72673;50.822;3.280;2023-09-18T09:57:48;5.60;;;2.50;;
82900;SDS011;72673;50.822;3.280;2023-09-18T10:00:16;5.20;;;2.20;;
82900;SDS011;72673;50.822;3.280;2023-09-18T10:02:58;7.72;;;2.22;;
82900;SDS011;72673;50.822;3.280;2023-09-18T10:05:30;7.47;;;2.28;;
82900;SDS011;72673;50.822;3.280;2023-09-18T10:08:08;8.88;;;2.10;;
82900;SDS011;72673;50.822;3.280;2023-09-18T10:10:46;10.75;;;2.28;;
82900;SDS011;72673;50.822;3.280;2023-09-18T10:16:01;6.88;;;2.10;;
82900;SDS011;72673;50.822;3.280;2023-09-18T10:18:36;3.53;;;1.67;;
82900;SDS011;72673;50.822;3.280;2023-09-18T10:21:14;5.40;;;1.90;;
82900;SDS011;72673;50.822;3.280;2023-09-18T10:26:51;5.20;;;1.80;;
82900;SDS011;72673;50.822;3.280;2023-09-18T10:29:27;6.28;;;1.60;;
82900;SDS011;72673;50.822;3.280;2023-09-18T10:31:55;6.07;;;2.00;;
82900;SDS011;72673;50.822;3.280;2023-09-18T10:34:22;5.18;;;1.80;;
82900;SDS011;72673;50.822;3.280;2023-09-18T10:36:50;4.90;;;1.58;;
82900;SDS011;72673;50.822;3.280;2023-09-18T10:39:23;8.13;;;1.98;;
82900;SDS011;72673;50.822;3.280;2023-09-18T10:41:52;5.07;;;1.90;;
82900;SDS011;72673;50.822;3.280;2023-09-18T10:44:18;4.00;;;1.67;;
82900;SDS011;72673;50.822;3.280;2023-09-18T10:46:45;3.42;;;1.60;;
82900;SDS011;72673;50.822;3.280;2023-09-18T10:49:11;4.93;;;1.55;;
82900;SDS011;72673;50.822;3.280;2023-09-18T10:51:37;7.53;;;1.88;;
82900;SDS011;72673;50.822;3.280;2023-09-18T10:54:10;6.07;;;2.05;;
82900;SDS011;72673;50.822;3.280;2023-09-18T10:56:40;3.85;;;1.50;;
82900;SDS011;72673;50.822;3.280;2023-09-18T10:59:09;4.18;;;1.38;;
82900;SDS011;72673;50.822;3.280;2023-09-18T11:01:35;16.08;;;2.58;;
82900;SDS011;72673;50.822;3.280;2023-09-18T11:04:03;5.05;;;1.85;;
82900;SDS011;72673;50.822;3.280;2023-09-18T11:07:00;3.28;;;1.50;;
82900;SDS011;72673;50.822;3.280;2023-09-18T11:09:19;4.85;;;1.75;;
82900;SDS011;72673;50.822;3.280;2023-09-18T11:17:37;9.55;;;2.90;;
82900;SDS011;72673;50.822;3.280;2023-09-18T11:22:39;5.55;;;1.52;;
82900;SDS011;72673;50.822;3.280;2023-09-18T11:28:02;5.13;;;1.58;;
82900;SDS011;72673;50.822;3.280;2023-09-18T11:30:31;4.10;;;1.50;;
82900;SDS011;72673;50.822;3.280;2023-09-18T11:33:04;5.10;;;1.70;;
82900;SDS011;72673;50.822;3.280;2023-09-18T11:35:34;5.40;;;1.80;;
82900;SDS011;72673;50.822;3.280;2023-09-18T11:38:08;5.57;;;1.65;;
82900;SDS011;72673;50.822;3.280;2023-09-18T11:40:36;5.80;;;2.28;;
82900;SDS011;72673;50.822;3.280;2023-09-18T11:45:54;6.07;;;1.50;;
82900;SDS011;72673;50.822;3.280;2023-09-18T11:48:22;5.15;;;1.63;;
82900;SDS011;72673;50.822;3.280;2023-09-18T11:50:49;3.22;;;1.48;;
82900;SDS011;72673;50.822;3.280;2023-09-18T11:53:17;7.18;;;1.70;;
82900;SDS011;72673;50.822;3.280;2023-09-18T11:55:44;4.10;;;1.52;;
82900;SDS011;72673;50.822;3.280;2023-09-18T11:58:10;5.18;;;1.42;;
82900;SDS011;72673;50.822;3.280;2023-09-18T12:00:36;4.38;;;1.80;;
82900;SDS011;72673;50.822;3.280;2023-09-18T12:03:21;5.82;;;1.73;;
82900;SDS011;72673;50.822;3.280;2023-09-18T12:06:08;2.28;;;1.30;;
82900;SDS011;72673;50.822;3.280;2023-09-18T12:08:38;4.55;;;1.67;;
82900;SDS011;72673;50.822;3.280;2023-09-18T12:11:05;4.65;;;1.52;;
82900;SDS011;72673;50.822;3.280;2023-09-18T12:13:31;6.55;;;1.52;;
82900;SDS011;72673;50.822;3.280;2023-09-18T12:16:01;6.25;;;1.70;;
82900;SDS011;72673;50.822;3.280;2023-09-18T12:18:30;7.35;;;1.40;;
82900;SDS011;72673;50.822;3.280;2023-09-18T12:20:57;7.15;;;1.30;;
82900;SDS011;72673;50.822;3.280;2023-09-18T12:23:26;9.98;;;1.90;;
82900;SDS011;72673;50.822;3.280;2023-09-18T12:25:59;6.88;;;1.60;;
82900;SDS011;72673;50.822;3.280;2023-09-18T12:28:26;5.28;;;1.50;;
82900;SDS011;72673;50.822;3.280;2023-09-18T12:30:53;5.25;;;1.50;;
82900;SDS011;72673;50.822;3.280;2023-09-18T12:33:22;4.85;;;1.40;;
82900;SDS011;72673;50.822;3.280;2023-09-18T12:35:49;6.00;;;1.73;;
82900;SDS011;72673;50.822;3.280;2023-09-18T12:38:17;5.17;;;1.20;;
82900;SDS011;72673;50.822;3.280;2023-09-18T12:40:50;6.05;;;1.60;;
82900;SDS011;72673;50.822;3.280;2023-09-18T12:43:16;3.65;;;1.42;;
82900;SDS011;72673;50.822;3.280;2023-09-18T12:45:43;6.45;;;1.45;;
82900;SDS011;72673;50.822;3.280;2023-09-18T12:48:09;6.20;;;1.75;;
82900;SDS011;72673;50.822;3.280;2023-09-18T12:50:35;6.22;;;1.40;;
82900;SDS011;72673;50.822;3.280;2023-09-18T12:53:14;3.88;;;1.40;;
82900;SDS011;72673;50.822;3.280;2023-09-18T12:58:10;7.35;;;2.00;;
82900;SDS011;72673;50.822;3.280;2023-09-18T13:00:36;7.78;;;1.85;;
82900;SDS011;72673;50.822;3.280;2023-09-18T13:03:05;3.80;;;1.55;;
82900;SDS011;72673;50.822;3.280;2023-09-18T13:05:30;4.27;;;1.87;;
82900;SDS011;72673;50.822;3.280;2023-09-18T13:10:29;4.82;;;2.17;;
82900;SDS011;72673;50.822;3.280;2023-09-18T13:13:05;12.85;;;3.17;;
82900;SDS011;72673;50.822;3.280;2023-09-18T13:15:31;9.85;;;2.67;;
82900;SDS011;72673;50.822;3.280;2023-09-18T13:17:58;7.75;;;2.38;;
82900;SDS011;72673;50.822;3.280;2023-09-18T13:20:26;4.65;;;2.50;;
82900;SDS011;72673;50.822;3.280;2023-09-18T13:22:57;4.85;;;1.90;;
82900;SDS011;72673;50.822;3.280;2023-09-18T13:25:26;13.43;;;2.65;;
82900;SDS011;72673;50.822;3.280;2023-09-18T13:27:54;5.97;;;2.10;;
82900;SDS011;72673;50.822;3.280;2023-09-18T13:30:21;5.85;;;2.45;;
82900;SDS011;72673;50.822;3.280;2023-09-18T13:32:48;6.47;;;1.90;;
82900;SDS011;72673;50.822;3.280;2023-09-18T13:35:18;5.65;;;1.80;;
82900;SDS011;72673;50.822;3.280;2023-09-18T13:37:44;6.25;;;2.20;;
82900;SDS011;72673;50.822;3.280;2023-09-18T13:40:10;11.93;;;2.25;;
82900;SDS011;72673;50.822;3.280;2023-09-18T13:42:39;4.32;;;2.15;;
82900;SDS011;72673;50.822;3.280;2023-09-18T13:45:05;3.65;;;2.05;;
82900;SDS011;72673;50.822;3.280;2023-09-18T13:47:32;4.25;;;2.13;;
82900;SDS011;72673;50.822;3.280;2023-09-18T13:50:02;6.18;;;1.83;;
82900;SDS011;72673;50.822;3.280;2023-09-18T13:52:30;6.68;;;1.48;;
82900;SDS011;72673;50.822;3.280;2023-09-18T13:54:57;2.50;;;1.30;;
82900;SDS011;72673;50.822;3.280;2023-09-18T13:57:23;4.20;;;1.55;;
82900;SDS011;72673;50.822;3.280;2023-09-18T13:59:50;4.32;;;1.50;;
82900;SDS011;72673;50.822;3.280;2023-09-18T14:02:17;7.15;;;1.20;;
82900;SDS011;72673;50.822;3.280;2023-09-18T14:04:43;5.05;;;1.50;;
82900;SDS011;72673;50.822;3.280;2023-09-18T14:07:10;1.75;;;1.10;;
82900;SDS011;72673;50.822;3.280;2023-09-18T14:09:36;5.82;;;1.10;;
82900;SDS011;72673;50.822;3.280;2023-09-18T14:12:03;5.80;;;0.95;;
82900;SDS011;72673;50.822;3.280;2023-09-18T14:14:30;5.47;;;1.08;;
82900;SDS011;72673;50.822;3.280;2023-09-18T14:16:57;3.67;;;1.00;;
82900;SDS011;72673;50.822;3.280;2023-09-18T14:19:23;4.53;;;1.25;;
82900;SDS011;72673;50.822;3.280;2023-09-18T14:21:49;3.33;;;1.45;;
82900;SDS011;72673;50.822;3.280;2023-09-18T14:24:15;3.10;;;1.35;;
82900;SDS011;72673;50.822;3.280;2023-09-18T14:26:47;7.10;;;1.00;;
82900;SDS011;72673;50.822;3.280;2023-09-18T14:29:14;2.90;;;1.40;;
82900;SDS011;72673;50.822;3.280;2023-09-18T14:31:40;5.15;;;1.08;;
82900;SDS011;72673;50.822;3.280;2023-09-18T14:34:06;3.63;;;1.40;;
82900;SDS011;72673;50.822;3.280;2023-09-18T14:36:32;2.22;;;0.73;;
82900;SDS011;72673;50.822;3.280;2023-09-18T14:41:27;1.95;;;0.93;;
82900;SDS011;72673;50.822;3.280;2023-09-18T14:43:52;3.60;;;0.93;;
82900;SDS011;72673;50.822;3.280;2023-09-18T14:46:19;3.20;;;0.80;;
82900;SDS011;72673;50.822;3.280;2023-09-18T14:48:45;3.40;;;1.10;;
82900;SDS011;72673;50.822;3.280;2023-09-18T14:51:11;5.03;;;1.00;;
82900;SDS011;72673;50.822;3.280;2023-09-18T14:53:37;8.38;;;1.33;;
82900;SDS011;72673;50.822;3.280;2023-09-18T14:56:03;4.18;;;1.00;;
82900;SDS011;72673;50.822;3.280;2023-09-18T14:58:32;4.20;;;1.33;;
82900;SDS011;72673;50.822;3.280;2023-09-18T15:00:58;5.88;;;1.15;;
82900;SDS011;72673;50.822;3.280;2023-09-18T15:03:24;2.10;;;1.00;;
82900;SDS011;72673;50.822;3.280;2023-09-18T15:05:50;5.88;;;1.20;;
82900;SDS011;72673;50.822;3.280;2023-09-18T15:08:17;8.18;;;1.40;;
82900;SDS011;72673;50.822;3.280;2023-09-18T15:10:45;6.75;;;1.38;;
82900;SDS011;72673;50.822;3.280;2023-09-18T15:13:11;7.40;;;1.58;;
82900;SDS011;72673;50.822;3.280;2023-09-18T15:15:36;5.28;;;1.15;;
82900;SDS011;72673;50.822;3.280;2023-09-18T15:18:02;6.78;;;1.50;;
82900;SDS011;72673;50.822;3.280;2023-09-18T15:20:28;5.80;;;1.42;;
82900;SDS011;72673;50.822;3.280;2023-09-18T15:22:54;3.90;;;1.20;;
82900;SDS011;72673;50.822;3.280;2023-09-18T15:25:21;8.52;;;1.58;;
82900;SDS011;72673;50.822;3.280;2023-09-18T15:27:47;11.48;;;1.85;;
82900;SDS011;72673;50.822;3.280;2023-09-18T15:30:13;9.43;;;1.58;;